sensor_id;sensor_type;location;lat;lon;timestamp;P1;durP1;ratioP1;P2;durP2;ratioP2
568;SDS011;269;48.884;9.192;2023-04-05T00:00:00;7.40;;;6.63;;
568;SDS011;269;48.884;9.192;2023-04-05T00:02:32;6.47;;;5.90;;
568;SDS011;269;48.884;9.192;2023-04-05T00:05:01;6.50;;;5.90;;
568;SDS011;269;48.884;9.192;2023-04-05T00:07:28;8.40;;;6.57;;
568;SDS011;269;48.884;9.192;2023-04-05T00:09:58;5.95;;;5.40;;
568;SDS011;269;48.884;9.192;2023-04-05T00:12:27;6.97;;;6.38;;
568;SDS011;269;48.884;9.192;2023-04-05T00:14:54;6.20;;;5.70;;
568;SDS011;269;48.884;9.192;2023-04-05T00:17:21;7.13;;;5.57;;
568;SDS011;269;48.884;9.192;2023-04-05T00:19:48;7.10;;;6.35;;
568;SDS011;269;48.884;9.192;2023-04-05T00:22:21;6.63;;;6.07;;
568;SDS011;269;48.884;9.192;2023-04-05T00:24:50;8.02;;;6.00;;
568;SDS011;269;48.884;9.192;2023-04-05T00:27:17;8.45;;;6.03;;
568;SDS011;269;48.884;9.192;2023-04-05T00:29:45;7.90;;;5.90;;
568;SDS011;269;48.884;9.192;2023-04-05T00:32:12;6.68;;;6.00;;
568;SDS011;269;48.884;9.192;2023-04-05T00:34:39;6.10;;;5.60;;
568;SDS011;269;48.884;9.192;2023-04-05T00:37:07;6.22;;;5.72;;
568;SDS011;269;48.884;9.192;2023-04-05T00:39:34;7.22;;;6.53;;
568;SDS011;269;48.884;9.192;2023-04-05T00:42:01;6.90;;;6.18;;
568;SDS011;269;48.884;9.192;2023-04-05T00:44:28;6.50;;;6.00;;
568;SDS011;269;48.884;9.192;2023-04-05T00:47:00;6.97;;;6.28;;
568;SDS011;269;48.884;9.192;2023-04-05T00:49:27;6.15;;;5.55;;
568;SDS011;269;48.884;9.192;2023-04-05T00:51:55;5.65;;;5.13;;
568;SDS011;269;48.884;9.192;2023-04-05T00:54:22;7.68;;;5.80;;
568;SDS011;269;48.884;9.192;2023-04-05T00:56:50;6.40;;;5.47;;
568;SDS011;269;48.884;9.192;2023-04-05T00:59:18;5.70;;;5.20;;
568;SDS011;269;48.884;9.192;2023-04-05T01:01:46;8.25;;;4.97;;
568;SDS011;269;48.884;9.192;2023-04-05T01:04:21;6.40;;;5.80;;
568;SDS011;269;48.884;9.192;2023-04-05T01:06:56;7.13;;;6.18;;
568;SDS011;269;48.884;9.192;2023-04-05T01:09:35;7.15;;;6.47;;
568;SDS011;269;48.884;9.192;2023-04-05T01:12:08;7.07;;;6.38;;
568;SDS011;269;48.884;9.192;2023-04-05T01:14:44;6.53;;;5.88;;
568;SDS011;269;48.884;9.192;2023-04-05T01:17:12;7.75;;;6.93;;
568;SDS011;269;48.884;9.192;2023-04-05T01:19:42;6.82;;;6.22;;
568;SDS011;269;48.884;9.192;2023-04-05T01:22:31;6.60;;;5.78;;
568;SDS011;269;48.884;9.192;2023-04-05T01:28:34;6.35;;;5.85;;
568;SDS011;269;48.884;9.192;2023-04-05T01:31:16;6.38;;;5.78;;
568;SDS011;269;48.884;9.192;2023-04-05T01:33:48;7.15;;;6.45;;
568;SDS011;269;48.884;9.192;2023-04-05T01:36:23;7.25;;;6.65;;
568;SDS011;269;48.884;9.192;2023-04-05T01:38:57;7.05;;;6.45;;
568;SDS011;269;48.884;9.192;2023-04-05T01:41:26;7.07;;;6.47;;
568;SDS011;269;48.884;9.192;2023-04-05T01:43:55;7.05;;;6.35;;
568;SDS011;269;48.884;9.192;2023-04-05T01:46:23;7.65;;;6.40;;
568;SDS011;269;48.884;9.192;2023-04-05T01:48:51;6.45;;;5.85;;
568;SDS011;269;48.884;9.192;2023-04-05T01:51:18;6.53;;;5.93;;
568;SDS011;269;48.884;9.192;2023-04-05T01:53:45;6.47;;;5.88;;
568;SDS011;269;48.884;9.192;2023-04-05T01:56:12;8.32;;;6.30;;
568;SDS011;269;48.884;9.192;2023-04-05T01:58:39;7.25;;;6.25;;
568;SDS011;269;48.884;9.192;2023-04-05T02:01:06;6.25;;;5.65;;
568;SDS011;269;48.884;9.192;2023-04-05T02:03:35;6.80;;;5.57;;
568;SDS011;269;48.884;9.192;2023-04-05T02:06:02;5.95;;;5.45;;
568;SDS011;269;48.884;9.192;2023-04-05T02:08:30;7.10;;;5.90;;
568;SDS011;269;48.884;9.192;2023-04-05T02:10:57;6.10;;;5.55;;
568;SDS011;269;48.884;9.192;2023-04-05T02:13:24;7.95;;;6.50;;
568;SDS011;269;48.884;9.192;2023-04-05T02:15:51;6.78;;;6.18;;
568;SDS011;269;48.884;9.192;2023-04-05T02:18:19;6.72;;;6.03;;
568;SDS011;269;48.884;9.192;2023-04-05T02:20:48;6.97;;;6.25;;
568;SDS011;269;48.884;9.192;2023-04-05T02:23:17;6.43;;;5.82;;
568;SDS011;269;48.884;9.192;2023-04-05T02:25:45;6.32;;;5.70;;
568;SDS011;269;48.884;9.192;2023-04-05T02:28:12;6.10;;;5.50;;
568;SDS011;269;48.884;9.192;2023-04-05T02:30:39;7.00;;;5.45;;
568;SDS011;269;48.884;9.192;2023-04-05T02:33:06;6.22;;;5.63;;
568;SDS011;269;48.884;9.192;2023-04-05T02:35:34;6.90;;;6.22;;
568;SDS011;269;48.884;9.192;2023-04-05T02:38:03;6.55;;;5.95;;
568;SDS011;269;48.884;9.192;2023-04-05T02:40:30;6.15;;;5.65;;
568;SDS011;269;48.884;9.192;2023-04-05T02:42:57;6.88;;;6.28;;
568;SDS011;269;48.884;9.192;2023-04-05T02:45:25;7.97;;;5.70;;
568;SDS011;269;48.884;9.192;2023-04-05T02:47:52;6.32;;;5.72;;
568;SDS011;269;48.884;9.192;2023-04-05T02:50:20;6.60;;;5.88;;
568;SDS011;269;48.884;9.192;2023-04-05T02:52:47;6.22;;;5.70;;
568;SDS011;269;48.884;9.192;2023-04-05T02:55:16;5.93;;;4.93;;
568;SDS011;269;48.884;9.192;2023-04-05T02:57:44;6.40;;;5.70;;
568;SDS011;269;48.884;9.192;2023-04-05T03:00:11;5.95;;;5.35;;
568;SDS011;269;48.884;9.192;2023-04-05T03:02:39;6.50;;;5.88;;
568;SDS011;269;48.884;9.192;2023-04-05T03:05:06;8.00;;;5.70;;
568;SDS011;269;48.884;9.192;2023-04-05T03:07:34;7.78;;;5.63;;
568;SDS011;269;48.884;9.192;2023-04-05T03:10:02;6.70;;;6.20;;
568;SDS011;269;48.884;9.192;2023-04-05T03:12:32;6.40;;;5.80;;
568;SDS011;269;48.884;9.192;2023-04-05T03:14:59;6.20;;;5.70;;
568;SDS011;269;48.884;9.192;2023-04-05T03:17:26;6.05;;;5.55;;
568;SDS011;269;48.884;9.192;2023-04-05T03:19:53;7.40;;;6.70;;
568;SDS011;269;48.884;9.192;2023-04-05T03:22:20;6.22;;;5.63;;
568;SDS011;269;48.884;9.192;2023-04-05T03:24:47;6.50;;;5.90;;
568;SDS011;269;48.884;9.192;2023-04-05T03:27:15;6.30;;;5.70;;
568;SDS011;269;48.884;9.192;2023-04-05T03:29:44;7.97;;;6.05;;
568;SDS011;269;48.884;9.192;2023-04-05T03:32:11;6.18;;;5.65;;
568;SDS011;269;48.884;9.192;2023-04-05T03:34:39;6.38;;;5.85;;
568;SDS011;269;48.884;9.192;2023-04-05T03:37:06;8.70;;;5.93;;
568;SDS011;269;48.884;9.192;2023-04-05T03:39:33;6.65;;;6.05;;
568;SDS011;269;48.884;9.192;2023-04-05T03:42:01;7.07;;;6.43;;
568;SDS011;269;48.884;9.192;2023-04-05T03:44:28;7.00;;;6.03;;
568;SDS011;269;48.884;9.192;2023-04-05T03:46:57;6.75;;;6.15;;
568;SDS011;269;48.884;9.192;2023-04-05T03:49:24;6.00;;;5.50;;
568;SDS011;269;48.884;9.192;2023-04-05T03:51:51;7.28;;;5.75;;
568;SDS011;269;48.884;9.192;2023-04-05T03:54:19;6.50;;;5.88;;
568;SDS011;269;48.884;9.192;2023-04-05T03:56:46;5.93;;;5.43;;
568;SDS011;269;48.884;9.192;2023-04-05T03:59:13;8.13;;;7.32;;
568;SDS011;269;48.884;9.192;2023-04-05T04:01:40;7.40;;;6.35;;
568;SDS011;269;48.884;9.192;2023-04-05T04:04:10;6.60;;;6.00;;
568;SDS011;269;48.884;9.192;2023-04-05T04:06:37;6.00;;;5.50;;
568;SDS011;269;48.884;9.192;2023-04-05T04:09:05;6.25;;;5.72;;
568;SDS011;269;48.884;9.192;2023-04-05T04:11:32;7.57;;;5.82;;
568;SDS011;269;48.884;9.192;2023-04-05T04:13:59;7.15;;;6.25;;
568;SDS011;269;48.884;9.192;2023-04-05T04:16:26;8.10;;;6.90;;
568;SDS011;269;48.884;9.192;2023-04-05T04:18:53;7.50;;;6.75;;
568;SDS011;269;48.884;9.192;2023-04-05T04:21:22;8.38;;;6.90;;
568;SDS011;269;48.884;9.192;2023-04-05T04:23:50;7.13;;;6.43;;
568;SDS011;269;48.884;9.192;2023-04-05T04:26:17;7.55;;;6.82;;
568;SDS011;269;48.884;9.192;2023-04-05T04:28:51;6.90;;;6.20;;
568;SDS011;269;48.884;9.192;2023-04-05T04:31:18;7.35;;;6.57;;
568;SDS011;269;48.884;9.192;2023-04-05T04:33:48;7.20;;;6.50;;
568;SDS011;269;48.884;9.192;2023-04-05T04:36:16;8.27;;;7.22;;
568;SDS011;269;48.884;9.192;2023-04-05T04:38:52;7.22;;;6.63;;
568;SDS011;269;48.884;9.192;2023-04-05T04:41:20;7.32;;;6.72;;
568;SDS011;269;48.884;9.192;2023-04-05T04:43:47;7.10;;;6.40;;
568;SDS011;269;48.884;9.192;2023-04-05T04:46:14;7.45;;;6.75;;
568;SDS011;269;48.884;9.192;2023-04-05T04:48:45;9.68;;;7.90;;
568;SDS011;269;48.884;9.192;2023-04-05T04:51:12;8.27;;;7.38;;
568;SDS011;269;48.884;9.192;2023-04-05T04:53:39;7.47;;;6.78;;
568;SDS011;269;48.884;9.192;2023-04-05T04:56:08;8.30;;;7.18;;
568;SDS011;269;48.884;9.192;2023-04-05T04:58:38;8.65;;;7.80;;
568;SDS011;269;48.884;9.192;2023-04-05T05:01:06;7.90;;;7.10;;
568;SDS011;269;48.884;9.192;2023-04-05T05:03:34;6.85;;;6.15;;
568;SDS011;269;48.884;9.192;2023-04-05T05:06:03;7.57;;;6.65;;
568;SDS011;269;48.884;9.192;2023-04-05T05:08:30;7.78;;;6.45;;
568;SDS011;269;48.884;9.192;2023-04-05T05:10:57;8.40;;;7.20;;
568;SDS011;269;48.884;9.192;2023-04-05T05:13:27;7.60;;;6.43;;
568;SDS011;269;48.884;9.192;2023-04-05T05:15:54;9.77;;;8.15;;
568;SDS011;269;48.884;9.192;2023-04-05T05:18:22;7.70;;;7.00;;
568;SDS011;269;48.884;9.192;2023-04-05T05:20:49;8.02;;;7.32;;
568;SDS011;269;48.884;9.192;2023-04-05T05:23:17;7.63;;;6.93;;
568;SDS011;269;48.884;9.192;2023-04-05T05:25:45;9.50;;;7.45;;
568;SDS011;269;48.884;9.192;2023-04-05T05:28:16;9.02;;;7.43;;
568;SDS011;269;48.884;9.192;2023-04-05T05:30:44;7.65;;;6.95;;
568;SDS011;269;48.884;9.192;2023-04-05T05:33:11;8.15;;;7.45;;
568;SDS011;269;48.884;9.192;2023-04-05T05:35:39;8.65;;;7.53;;
568;SDS011;269;48.884;9.192;2023-04-05T05:38:06;9.18;;;7.80;;
568;SDS011;269;48.884;9.192;2023-04-05T05:40:33;8.38;;;7.20;;
568;SDS011;269;48.884;9.192;2023-04-05T05:43:00;8.18;;;7.47;;
568;SDS011;269;48.884;9.192;2023-04-05T05:45:28;11.15;;;8.05;;
568;SDS011;269;48.884;9.192;2023-04-05T05:47:58;8.60;;;7.70;;
568;SDS011;269;48.884;9.192;2023-04-05T05:50:25;9.65;;;7.75;;
568;SDS011;269;48.884;9.192;2023-04-05T05:52:57;8.68;;;7.60;;
568;SDS011;269;48.884;9.192;2023-04-05T05:55:24;10.05;;;6.85;;
568;SDS011;269;48.884;9.192;2023-04-05T05:57:51;9.65;;;7.18;;
568;SDS011;269;48.884;9.192;2023-04-05T06:00:18;6.97;;;6.38;;
568;SDS011;269;48.884;9.192;2023-04-05T06:02:46;7.90;;;6.85;;
568;SDS011;269;48.884;9.192;2023-04-05T06:05:14;7.63;;;6.90;;
568;SDS011;269;48.884;9.192;2023-04-05T06:07:42;7.88;;;7.10;;
568;SDS011;269;48.884;9.192;2023-04-05T06:10:09;9.77;;;7.00;;
568;SDS011;269;48.884;9.192;2023-04-05T06:12:37;7.13;;;6.32;;
568;SDS011;269;48.884;9.192;2023-04-05T06:15:05;8.95;;;7.60;;
568;SDS011;269;48.884;9.192;2023-04-05T06:17:34;7.60;;;6.85;;
568;SDS011;269;48.884;9.192;2023-04-05T06:20:07;7.50;;;6.80;;
568;SDS011;269;48.884;9.192;2023-04-05T06:22:37;8.23;;;7.50;;
568;SDS011;269;48.884;9.192;2023-04-05T06:25:06;7.18;;;5.80;;
568;SDS011;269;48.884;9.192;2023-04-05T06:27:35;7.68;;;6.57;;
568;SDS011;269;48.884;9.192;2023-04-05T06:30:02;6.43;;;5.82;;
568;SDS011;269;48.884;9.192;2023-04-05T06:32:30;7.72;;;7.05;;
568;SDS011;269;48.884;9.192;2023-04-05T06:34:57;7.60;;;6.55;;
568;SDS011;269;48.884;9.192;2023-04-05T06:37:24;8.52;;;6.65;;
568;SDS011;269;48.884;9.192;2023-04-05T06:39:52;7.07;;;6.47;;
568;SDS011;269;48.884;9.192;2023-04-05T06:42:20;6.53;;;5.70;;
568;SDS011;269;48.884;9.192;2023-04-05T06:44:47;7.80;;;6.22;;
568;SDS011;269;48.884;9.192;2023-04-05T06:47:14;7.20;;;6.30;;
568;SDS011;269;48.884;9.192;2023-04-05T06:49:41;11.38;;;7.10;;
568;SDS011;269;48.884;9.192;2023-04-05T06:52:09;8.57;;;6.88;;
568;SDS011;269;48.884;9.192;2023-04-05T06:54:36;9.05;;;6.88;;
568;SDS011;269;48.884;9.192;2023-04-05T06:57:05;7.65;;;6.95;;
568;SDS011;269;48.884;9.192;2023-04-05T06:59:33;7.95;;;6.75;;
568;SDS011;269;48.884;9.192;2023-04-05T07:02:00;7.85;;;6.30;;
568;SDS011;269;48.884;9.192;2023-04-05T07:04:27;7.55;;;6.85;;
568;SDS011;269;48.884;9.192;2023-04-05T07:06:58;9.07;;;6.53;;
568;SDS011;269;48.884;9.192;2023-04-05T07:09:27;6.40;;;5.65;;
568;SDS011;269;48.884;9.192;2023-04-05T07:11:57;7.45;;;6.45;;
568;SDS011;269;48.884;9.192;2023-04-05T07:14:27;6.60;;;6.00;;
568;SDS011;269;48.884;9.192;2023-04-05T07:16:55;7.78;;;6.95;;
568;SDS011;269;48.884;9.192;2023-04-05T07:19:22;6.28;;;5.78;;
568;SDS011;269;48.884;9.192;2023-04-05T07:21:51;6.80;;;6.20;;
568;SDS011;269;48.884;9.192;2023-04-05T07:24:18;7.95;;;6.30;;
568;SDS011;269;48.884;9.192;2023-04-05T07:26:46;6.70;;;5.97;;
568;SDS011;269;48.884;9.192;2023-04-05T07:29:13;6.03;;;5.53;;
568;SDS011;269;48.884;9.192;2023-04-05T07:31:42;7.30;;;6.50;;
568;SDS011;269;48.884;9.192;2023-04-05T07:34:09;6.85;;;6.25;;
568;SDS011;269;48.884;9.192;2023-04-05T07:36:38;7.70;;;6.90;;
568;SDS011;269;48.884;9.192;2023-04-05T07:39:06;7.20;;;6.50;;
568;SDS011;269;48.884;9.192;2023-04-05T07:41:33;6.50;;;5.90;;
568;SDS011;269;48.884;9.192;2023-04-05T07:44:01;8.02;;;6.93;;
568;SDS011;269;48.884;9.192;2023-04-05T07:46:28;8.15;;;6.72;;
568;SDS011;269;48.884;9.192;2023-04-05T07:48:57;7.97;;;6.28;;
568;SDS011;269;48.884;9.192;2023-04-05T07:51:24;6.15;;;5.50;;
568;SDS011;269;48.884;9.192;2023-04-05T07:53:52;6.30;;;5.80;;
568;SDS011;269;48.884;9.192;2023-04-05T07:56:19;5.45;;;5.05;;
568;SDS011;269;48.884;9.192;2023-04-05T07:58:47;6.90;;;6.30;;
568;SDS011;269;48.884;9.192;2023-04-05T08:01:16;6.57;;;5.97;;
568;SDS011;269;48.884;9.192;2023-04-05T08:03:43;6.25;;;5.75;;
568;SDS011;269;48.884;9.192;2023-04-05T08:06:12;6.75;;;5.50;;
568;SDS011;269;48.884;9.192;2023-04-05T08:08:42;6.22;;;5.65;;
568;SDS011;269;48.884;9.192;2023-04-05T08:11:09;7.75;;;6.57;;
568;SDS011;269;48.884;9.192;2023-04-05T08:13:36;6.32;;;5.90;;
568;SDS011;269;48.884;9.192;2023-04-05T08:16:06;5.63;;;5.13;;
568;SDS011;269;48.884;9.192;2023-04-05T08:18:33;6.03;;;5.60;;
568;SDS011;269;48.884;9.192;2023-04-05T08:21:00;6.85;;;5.63;;
568;SDS011;269;48.884;9.192;2023-04-05T08:23:29;5.40;;;4.70;;
568;SDS011;269;48.884;9.192;2023-04-05T08:25:56;5.88;;;5.45;;
568;SDS011;269;48.884;9.192;2023-04-05T08:28:23;6.45;;;5.85;;
568;SDS011;269;48.884;9.192;2023-04-05T08:30:52;6.32;;;5.72;;
568;SDS011;269;48.884;9.192;2023-04-05T08:33:19;6.25;;;5.82;;
568;SDS011;269;48.884;9.192;2023-04-05T08:35:46;5.97;;;5.57;;
568;SDS011;269;48.884;9.192;2023-04-05T08:38:13;5.47;;;5.07;;
568;SDS011;269;48.884;9.192;2023-04-05T08:40:42;6.40;;;5.80;;
568;SDS011;269;48.884;9.192;2023-04-05T08:43:12;6.03;;;5.43;;
568;SDS011;269;48.884;9.192;2023-04-05T08:45:45;5.80;;;5.30;;
568;SDS011;269;48.884;9.192;2023-04-05T08:48:14;5.10;;;4.70;;
568;SDS011;269;48.884;9.192;2023-04-05T08:50:41;5.47;;;4.77;;
568;SDS011;269;48.884;9.192;2023-04-05T08:53:08;4.77;;;4.30;;
568;SDS011;269;48.884;9.192;2023-04-05T08:55:36;4.60;;;4.23;;
568;SDS011;269;48.884;9.192;2023-04-05T08:58:05;4.73;;;4.27;;
568;SDS011;269;48.884;9.192;2023-04-05T09:00:38;5.00;;;4.50;;
568;SDS011;269;48.884;9.192;2023-04-05T09:03:06;4.87;;;4.47;;
568;SDS011;269;48.884;9.192;2023-04-05T09:05:38;4.60;;;4.30;;
568;SDS011;269;48.884;9.192;2023-04-05T09:08:09;4.37;;;3.97;;
568;SDS011;269;48.884;9.192;2023-04-05T09:10:37;5.50;;;4.30;;
568;SDS011;269;48.884;9.192;2023-04-05T09:13:06;4.43;;;4.00;;
568;SDS011;269;48.884;9.192;2023-04-05T09:15:34;4.97;;;4.47;;
568;SDS011;269;48.884;9.192;2023-04-05T09:18:02;4.60;;;4.20;;
568;SDS011;269;48.884;9.192;2023-04-05T09:20:29;5.20;;;4.80;;
568;SDS011;269;48.884;9.192;2023-04-05T09:22:56;4.77;;;4.37;;
568;SDS011;269;48.884;9.192;2023-04-05T09:25:33;4.37;;;3.97;;
568;SDS011;269;48.884;9.192;2023-04-05T09:28:03;4.13;;;3.83;;
568;SDS011;269;48.884;9.192;2023-04-05T09:30:32;4.70;;;4.30;;
568;SDS011;269;48.884;9.192;2023-04-05T09:33:01;5.97;;;4.47;;
568;SDS011;269;48.884;9.192;2023-04-05T09:35:29;5.17;;;4.50;;
568;SDS011;269;48.884;9.192;2023-04-05T09:37:58;4.53;;;4.13;;
568;SDS011;269;48.884;9.192;2023-04-05T09:40:39;4.63;;;4.23;;
568;SDS011;269;48.884;9.192;2023-04-05T09:43:09;4.30;;;4.00;;
568;SDS011;269;48.884;9.192;2023-04-05T09:45:40;4.70;;;4.30;;
568;SDS011;269;48.884;9.192;2023-04-05T09:48:09;4.10;;;3.80;;
568;SDS011;269;48.884;9.192;2023-04-05T09:50:37;4.23;;;3.93;;
568;SDS011;269;48.884;9.192;2023-04-05T09:53:05;4.90;;;4.50;;
568;SDS011;269;48.884;9.192;2023-04-05T09:55:34;5.32;;;4.88;;
568;SDS011;269;48.884;9.192;2023-04-05T09:58:01;4.70;;;4.30;;
568;SDS011;269;48.884;9.192;2023-04-05T10:00:29;5.73;;;4.17;;
568;SDS011;269;48.884;9.192;2023-04-05T10:02:57;3.93;;;3.63;;
568;SDS011;269;48.884;9.192;2023-04-05T10:05:25;5.00;;;4.63;;
568;SDS011;269;48.884;9.192;2023-04-05T10:07:54;4.80;;;4.40;;
568;SDS011;269;48.884;9.192;2023-04-05T10:10:22;4.10;;;3.80;;
568;SDS011;269;48.884;9.192;2023-04-05T10:12:50;5.50;;;4.83;;
568;SDS011;269;48.884;9.192;2023-04-05T10:15:17;5.53;;;5.03;;
568;SDS011;269;48.884;9.192;2023-04-05T10:17:47;5.87;;;5.37;;
568;SDS011;269;48.884;9.192;2023-04-05T10:20:18;5.60;;;5.10;;
568;SDS011;269;48.884;9.192;2023-04-05T10:22:49;5.20;;;4.77;;
568;SDS011;269;48.884;9.192;2023-04-05T10:25:23;5.40;;;4.90;;
568;SDS011;269;48.884;9.192;2023-04-05T10:27:59;5.07;;;4.67;;
568;SDS011;269;48.884;9.192;2023-04-05T10:30:33;5.40;;;4.90;;
568;SDS011;269;48.884;9.192;2023-04-05T10:33:15;5.40;;;4.90;;
568;SDS011;269;48.884;9.192;2023-04-05T10:35:53;5.00;;;4.60;;
568;SDS011;269;48.884;9.192;2023-04-05T10:38:26;5.77;;;5.17;;
568;SDS011;269;48.884;9.192;2023-04-05T10:40:56;5.60;;;5.10;;
568;SDS011;269;48.884;9.192;2023-04-05T10:43:31;5.47;;;5.07;;
568;SDS011;269;48.884;9.192;2023-04-05T10:46:00;5.37;;;4.97;;
568;SDS011;269;48.884;9.192;2023-04-05T10:48:35;5.37;;;4.90;;
568;SDS011;269;48.884;9.192;2023-04-05T10:51:08;5.43;;;5.03;;
568;SDS011;269;48.884;9.192;2023-04-05T10:53:36;5.87;;;5.27;;
568;SDS011;269;48.884;9.192;2023-04-05T10:56:04;5.97;;;5.37;;
568;SDS011;269;48.884;9.192;2023-04-05T10:58:31;5.70;;;5.30;;
568;SDS011;269;48.884;9.192;2023-04-05T11:01:00;5.77;;;5.27;;
568;SDS011;269;48.884;9.192;2023-04-05T11:03:46;5.63;;;5.23;;
568;SDS011;269;48.884;9.192;2023-04-05T11:06:18;5.73;;;5.27;;
568;SDS011;269;48.884;9.192;2023-04-05T11:08:47;5.90;;;5.30;;
568;SDS011;269;48.884;9.192;2023-04-05T11:11:16;5.57;;;5.13;;
568;SDS011;269;48.884;9.192;2023-04-05T11:13:47;5.33;;;4.93;;
568;SDS011;269;48.884;9.192;2023-04-05T11:16:16;5.60;;;5.20;;
568;SDS011;269;48.884;9.192;2023-04-05T11:18:43;6.10;;;5.63;;
568;SDS011;269;48.884;9.192;2023-04-05T11:21:18;5.70;;;5.20;;
568;SDS011;269;48.884;9.192;2023-04-05T11:24:03;5.47;;;5.00;;
568;SDS011;269;48.884;9.192;2023-04-05T11:26:32;6.00;;;5.50;;
568;SDS011;269;48.884;9.192;2023-04-05T11:29:20;6.43;;;5.83;;
568;SDS011;269;48.884;9.192;2023-04-05T11:32:14;5.77;;;5.23;;
568;SDS011;269;48.884;9.192;2023-04-05T11:34:41;5.47;;;5.07;;
568;SDS011;269;48.884;9.192;2023-04-05T11:37:10;5.40;;;5.00;;
568;SDS011;269;48.884;9.192;2023-04-05T11:39:40;5.57;;;5.10;;
568;SDS011;269;48.884;9.192;2023-04-05T11:42:08;6.00;;;5.60;;
568;SDS011;269;48.884;9.192;2023-04-05T11:44:44;5.97;;;5.47;;
568;SDS011;269;48.884;9.192;2023-04-05T11:47:12;5.53;;;5.13;;
568;SDS011;269;48.884;9.192;2023-04-05T11:49:41;5.53;;;5.10;;
568;SDS011;269;48.884;9.192;2023-04-05T11:52:13;5.80;;;5.40;;
568;SDS011;269;48.884;9.192;2023-04-05T11:54:41;5.40;;;5.00;;
568;SDS011;269;48.884;9.192;2023-04-05T11:57:12;5.83;;;5.43;;
568;SDS011;269;48.884;9.192;2023-04-05T11:59:41;5.30;;;4.90;;
568;SDS011;269;48.884;9.192;2023-04-05T12:02:08;5.23;;;4.83;;
568;SDS011;269;48.884;9.192;2023-04-05T12:04:35;5.30;;;4.90;;
568;SDS011;269;48.884;9.192;2023-04-05T12:07:14;5.20;;;4.80;;
568;SDS011;269;48.884;9.192;2023-04-05T12:12:36;5.37;;;4.93;;
568;SDS011;269;48.884;9.192;2023-04-05T12:15:05;4.73;;;4.43;;
568;SDS011;269;48.884;9.192;2023-04-05T12:17:41;4.80;;;4.40;;
568;SDS011;269;48.884;9.192;2023-04-05T12:20:11;5.00;;;4.60;;
568;SDS011;269;48.884;9.192;2023-04-05T12:22:44;5.27;;;4.87;;
568;SDS011;269;48.884;9.192;2023-04-05T12:25:13;5.10;;;4.70;;
568;SDS011;269;48.884;9.192;2023-04-05T12:27:40;4.90;;;4.60;;
568;SDS011;269;48.884;9.192;2023-04-05T12:30:14;5.40;;;5.00;;
568;SDS011;269;48.884;9.192;2023-04-05T12:32:43;5.53;;;5.13;;
568;SDS011;269;48.884;9.192;2023-04-05T12:35:11;6.30;;;5.00;;
568;SDS011;269;48.884;9.192;2023-04-05T12:37:40;5.13;;;4.73;;
568;SDS011;269;48.884;9.192;2023-04-05T12:40:08;5.40;;;4.90;;
568;SDS011;269;48.884;9.192;2023-04-05T12:42:36;5.47;;;4.97;;
568;SDS011;269;48.884;9.192;2023-04-05T12:45:05;4.63;;;4.33;;
568;SDS011;269;48.884;9.192;2023-04-05T12:47:35;4.90;;;4.60;;
568;SDS011;269;48.884;9.192;2023-04-05T12:50:12;5.10;;;4.70;;
568;SDS011;269;48.884;9.192;2023-04-05T12:52:51;4.90;;;4.50;;
568;SDS011;269;48.884;9.192;2023-04-05T12:55:19;4.90;;;4.50;;
568;SDS011;269;48.884;9.192;2023-04-05T12:57:50;5.73;;;5.13;;
568;SDS011;269;48.884;9.192;2023-04-05T13:00:19;5.67;;;5.27;;
568;SDS011;269;48.884;9.192;2023-04-05T13:02:49;5.13;;;4.73;;
568;SDS011;269;48.884;9.192;2023-04-05T13:05:18;5.23;;;4.77;;
568;SDS011;269;48.884;9.192;2023-04-05T13:07:46;5.37;;;4.87;;
568;SDS011;269;48.884;9.192;2023-04-05T13:10:15;5.97;;;5.33;;
568;SDS011;269;48.884;9.192;2023-04-05T13:12:42;6.03;;;5.47;;
568;SDS011;269;48.884;9.192;2023-04-05T13:15:09;5.50;;;5.10;;
568;SDS011;269;48.884;9.192;2023-04-05T13:17:36;5.37;;;4.87;;
568;SDS011;269;48.884;9.192;2023-04-05T13:20:04;5.90;;;5.40;;
568;SDS011;269;48.884;9.192;2023-04-05T13:22:31;5.40;;;5.00;;
568;SDS011;269;48.884;9.192;2023-04-05T13:24:59;4.97;;;4.60;;
568;SDS011;269;48.884;9.192;2023-04-05T13:27:27;4.97;;;4.63;;
568;SDS011;269;48.884;9.192;2023-04-05T13:29:54;5.87;;;5.27;;
568;SDS011;269;48.884;9.192;2023-04-05T13:32:22;4.87;;;4.57;;
568;SDS011;269;48.884;9.192;2023-04-05T13:34:49;4.70;;;4.30;;
568;SDS011;269;48.884;9.192;2023-04-05T13:37:16;4.47;;;4.07;;
568;SDS011;269;48.884;9.192;2023-04-05T13:39:43;4.53;;;4.23;;
568;SDS011;269;48.884;9.192;2023-04-05T13:42:11;4.73;;;4.43;;
568;SDS011;269;48.884;9.192;2023-04-05T13:44:41;4.93;;;4.60;;
568;SDS011;269;48.884;9.192;2023-04-05T13:47:08;4.87;;;4.43;;
568;SDS011;269;48.884;9.192;2023-04-05T13:49:35;5.33;;;4.93;;
568;SDS011;269;48.884;9.192;2023-04-05T13:52:02;5.00;;;4.60;;
568;SDS011;269;48.884;9.192;2023-04-05T13:54:30;4.80;;;4.50;;
568;SDS011;269;48.884;9.192;2023-04-05T13:56:57;4.60;;;4.20;;
568;SDS011;269;48.884;9.192;2023-04-05T13:59:24;4.63;;;4.33;;
568;SDS011;269;48.884;9.192;2023-04-05T14:01:53;4.87;;;4.43;;
568;SDS011;269;48.884;9.192;2023-04-05T14:04:20;4.90;;;4.50;;
568;SDS011;269;48.884;9.192;2023-04-05T14:06:47;4.63;;;4.33;;
568;SDS011;269;48.884;9.192;2023-04-05T14:09:14;4.70;;;4.40;;
568;SDS011;269;48.884;9.192;2023-04-05T14:11:41;4.83;;;4.37;;
568;SDS011;269;48.884;9.192;2023-04-05T14:14:08;4.80;;;4.50;;
568;SDS011;269;48.884;9.192;2023-04-05T14:16:36;4.60;;;4.30;;
568;SDS011;269;48.884;9.192;2023-04-05T14:19:04;4.93;;;4.60;;
568;SDS011;269;48.884;9.192;2023-04-05T14:21:32;5.20;;;4.60;;
568;SDS011;269;48.884;9.192;2023-04-05T14:24:01;4.40;;;4.00;;
568;SDS011;269;48.884;9.192;2023-04-05T14:26:28;4.57;;;4.17;;
568;SDS011;269;48.884;9.192;2023-04-05T14:28:55;4.60;;;4.30;;
568;SDS011;269;48.884;9.192;2023-04-05T14:31:23;4.03;;;3.73;;
568;SDS011;269;48.884;9.192;2023-04-05T14:33:50;4.47;;;4.17;;
568;SDS011;269;48.884;9.192;2023-04-05T14:36:19;4.83;;;4.43;;
568;SDS011;269;48.884;9.192;2023-04-05T14:38:46;4.67;;;4.30;;
568;SDS011;269;48.884;9.192;2023-04-05T14:41:13;4.73;;;4.33;;
568;SDS011;269;48.884;9.192;2023-04-05T14:43:40;5.40;;;4.87;;
568;SDS011;269;48.884;9.192;2023-04-05T14:46:08;5.40;;;4.93;;
568;SDS011;269;48.884;9.192;2023-04-05T14:48:35;4.80;;;4.50;;
568;SDS011;269;48.884;9.192;2023-04-05T14:51:02;4.50;;;4.10;;
568;SDS011;269;48.884;9.192;2023-04-05T14:53:31;4.50;;;4.20;;
568;SDS011;269;48.884;9.192;2023-04-05T14:55:58;4.20;;;3.80;;
568;SDS011;269;48.884;9.192;2023-04-05T14:58:25;5.27;;;4.97;;
568;SDS011;269;48.884;9.192;2023-04-05T15:00:54;4.30;;;4.10;;
568;SDS011;269;48.884;9.192;2023-04-05T15:03:21;4.73;;;4.33;;
568;SDS011;269;48.884;9.192;2023-04-05T15:05:50;4.90;;;4.50;;
568;SDS011;269;48.884;9.192;2023-04-05T15:08:17;4.83;;;4.43;;
568;SDS011;269;48.884;9.192;2023-04-05T15:10:46;4.90;;;3.93;;
568;SDS011;269;48.884;9.192;2023-04-05T15:13:14;5.17;;;4.77;;
568;SDS011;269;48.884;9.192;2023-04-05T15:15:44;4.87;;;4.57;;
568;SDS011;269;48.884;9.192;2023-04-05T15:18:11;5.13;;;4.83;;
568;SDS011;269;48.884;9.192;2023-04-05T15:20:38;5.17;;;4.77;;
568;SDS011;269;48.884;9.192;2023-04-05T15:23:05;4.53;;;4.23;;
568;SDS011;269;48.884;9.192;2023-04-05T15:25:33;5.43;;;4.70;;
568;SDS011;269;48.884;9.192;2023-04-05T15:28:01;4.60;;;4.20;;
568;SDS011;269;48.884;9.192;2023-04-05T15:30:29;4.93;;;4.53;;
568;SDS011;269;48.884;9.192;2023-04-05T15:32:57;4.87;;;4.57;;
568;SDS011;269;48.884;9.192;2023-04-05T15:35:24;5.50;;;5.00;;
568;SDS011;269;48.884;9.192;2023-04-05T15:37:51;5.60;;;5.20;;
568;SDS011;269;48.884;9.192;2023-04-05T15:40:19;4.43;;;4.13;;
568;SDS011;269;48.884;9.192;2023-04-05T15:42:46;4.83;;;4.50;;
568;SDS011;269;48.884;9.192;2023-04-05T15:45:14;5.80;;;5.30;;
568;SDS011;269;48.884;9.192;2023-04-05T15:47:42;4.63;;;4.33;;
568;SDS011;269;48.884;9.192;2023-04-05T15:50:09;4.70;;;4.40;;
568;SDS011;269;48.884;9.192;2023-04-05T15:52:36;4.90;;;4.60;;
568;SDS011;269;48.884;9.192;2023-04-05T15:55:03;4.83;;;4.50;;
568;SDS011;269;48.884;9.192;2023-04-05T15:57:31;5.10;;;4.67;;
568;SDS011;269;48.884;9.192;2023-04-05T15:59:58;4.30;;;4.00;;